Time;durP1;ratioP1;P1;durP2;ratioP2;P2;SDS_P1;SDS_P2;PMS_P1;PMS_P2;Temp;Humidity;BMP_temperature;BMP_pressure;BME280_temperature;BME280_humidity;BME280_pressure;Samples;Min_cycle;Max_cycle;Signal;HPM_P1;HPM_P2
2022/06/03 00:01:58;;;;;;;8.85;5.13;;;7.90;99.90;;;;;;5011586;28;20575;-43
2022/06/03 00:04:29;;;;;;;8.20;5.13;;;8.00;99.90;;;;;;5026226;28;20139;-43
2022/06/03 00:07:08;;;;;;;9.10;5.85;;;7.80;99.90;;;;;;5012103;28;20045;-43
2022/06/03 00:10:08;;;;;;;10.10;6.22;;;8.10;99.90;;;;;;5012017;28;20090;-45
2022/06/03 00:12:49;;;;;;;10.23;5.82;;;8.00;99.90;;;;;;5027989;28;20044;-42
2022/06/03 00:15:27;;;;;;;8.30;6.05;;;8.00;99.90;;;;;;5025729;28;20564;-43
2022/06/03 00:18:36;;;;;;;10.60;5.95;;;8.00;99.90;;;;;;5000451;28;20072;-45
2022/06/03 00:21:07;;;;;;;9.18;6.65;;;9.20;99.90;;;;;;4935252;28;20591;-44
2022/06/03 00:24:01;;;;;;;9.25;6.25;;;7.90;99.90;;;;;;4935735;28;20141;-44
2022/06/03 00:26:32;;;;;;;10.52;6.38;;;8.00;99.90;;;;;;4936378;28;20073;-48
2022/06/03 00:29:19;;;;;;;10.00;6.83;;;7.80;99.90;;;;;;4951644;28;20405;-48
2022/06/03 00:32:08;;;;;;;10.70;6.93;;;7.70;99.90;;;;;;4955340;28;20293;-49
2022/06/03 00:35:18;;;;;;;9.07;6.35;;;7.70;99.90;;;;;;4955204;28;20129;-48
2022/06/03 00:38:08;;;;;;;10.00;6.45;;;7.70;99.90;;;;;;4970403;28;20904;-47
2022/06/03 00:40:45;;;;;;;8.85;6.53;;;7.60;99.90;;;;;;4955696;28;20061;-48
2022/06/03 00:43:24;;;;;;;12.18;6.93;;;7.50;99.90;;;;;;4939063;28;20061;-48
2022/06/03 00:46:14;;;;;;;12.18;7.35;;;9.50;99.90;;;;;;4954868;28;20444;-49
2022/06/03 00:48:57;;;;;;;12.23;7.18;;;7.40;99.90;;;;;;4955374;28;20054;-49
2022/06/03 00:51:54;;;;;;;9.68;6.95;;;7.50;99.90;;;;;;4940129;28;20046;-45
2022/06/03 00:54:23;;;;;;;10.13;8.07;;;7.50;99.90;;;;;;4934283;28;20752;-46
2022/06/03 00:57:25;;;;;;;10.85;8.70;;;8.10;99.90;;;;;;4934695;28;20047;-49
2022/06/03 01:00:10;;;;;;;;;;;7.50;99.90;;;;;;4994888;28;20052;-46
2022/06/03 01:02:50;;;;;;;8.77;6.65;;;7.60;99.90;;;;;;5017173;28;19927;-49
2022/06/03 01:05:27;;;;;;;10.63;7.65;;;7.50;99.90;;;;;;4998060;28;20089;-46
2022/06/03 01:08:14;;;;;;;9.45;7.15;;;7.40;99.90;;;;;;4999963;28;20132;-46
2022/06/03 01:10:58;;;;;;;11.85;6.80;;;7.40;99.90;;;;;;5016069;28;20050;-48
2022/06/03 01:13:46;;;;;;;9.05;6.95;;;7.40;99.90;;;;;;4998060;28;20780;-49
2022/06/03 01:16:45;;;;;;;9.80;6.82;;;7.30;99.90;;;;;;5010817;28;20068;-48
2022/06/03 01:19:16;;;;;;;10.00;6.13;;;7.20;99.90;;;;;;5014835;28;20065;-48
2022/06/03 01:21:55;;;;;;;10.23;7.03;;;7.40;99.90;;;;;;5013517;28;21140;-48
2022/06/03 01:24:59;;;;;;;9.68;7.00;;;7.20;99.90;;;;;;4998098;28;20072;-49
2022/06/03 01:28:02;;;;;;;11.30;7.45;;;7.10;99.90;;;;;;4979827;28;20648;-49
2022/06/03 01:30:47;;;;;;;9.70;6.80;;;7.20;99.90;;;;;;5017918;28;20064;-48
2022/06/03 01:33:24;;;;;;;9.52;6.80;;;7.30;99.90;;;;;;4985306;28;20094;-48
2022/06/03 01:36:20;;;;;;;9.25;6.03;;;7.30;99.90;;;;;;5012553;28;20148;-43
2022/06/03 01:38:45;;;;;;;9.75;6.35;;;7.20;99.90;;;;;;5013258;28;20040;-43
2022/06/03 01:41:33;;;;;;;10.32;7.85;;;7.10;99.90;;;;;;5012203;28;20086;-43
2022/06/03 01:44:26;;;;;;;10.20;6.93;;;7.10;99.90;;;;;;5029343;28;20098;-43
2022/06/03 01:47:23;;;;;;;11.60;7.82;;;7.10;99.90;;;;;;5011312;28;20600;-43
2022/06/03 01:50:38;;;;;;;11.40;8.02;;;7.20;99.90;;;;;;5013096;28;20084;-44
2022/06/03 01:53:29;;;;;;;12.15;8.27;;;7.20;99.90;;;;;;4988987;28;20136;-44
2022/06/03 01:56:29;;;;;;;13.25;7.07;;;7.10;99.90;;;;;;4989767;28;20283;-43
2022/06/03 01:59:40;;;;;;;11.35;7.43;;;6.90;99.90;;;;;;4900486;28;20055;-44
2022/06/03 02:02:29;;;;;;;11.07;7.45;;;7.00;99.90;;;;;;4959377;28;21256;-44
2022/06/03 02:05:30;;;;;;;11.35;7.97;;;8.40;99.90;;;;;;4954104;28;20058;-43
2022/06/03 02:08:09;;;;;;;11.20;7.97;;;7.00;99.90;;;;;;4954541;28;20205;-44
2022/06/03 02:10:53;;;;;;;9.38;7.18;;;6.80;99.90;;;;;;4957711;28;20799;-44
2022/06/03 02:13:55;;;;;;;10.85;7.88;;;7.10;99.90;;;;;;4944203;28;20092;-44
2022/06/03 02:16:42;;;;;;;11.00;7.68;;;7.00;99.90;;;;;;4974587;28;20074;-44
2022/06/03 02:19:33;;;;;;;10.20;7.32;;;7.00;99.90;;;;;;4942458;28;20069;-42
2022/06/03 02:22:07;;;;;;;9.82;7.47;;;6.90;99.90;;;;;;4958516;28;20583;-41
2022/06/03 02:24:55;;;;;;;9.02;6.90;;;6.90;99.90;;;;;;4957519;28;20574;-42
2022/06/03 02:27:27;;;;;;;9.20;7.78;;;6.90;99.90;;;;;;4921627;28;20047;-44
2022/06/03 02:30:26;;;;;;;10.27;7.68;;;7.00;99.90;;;;;;4929243;28;20047;-42
2022/06/03 02:33:16;;;;;;;9.05;6.30;;;6.80;99.90;;;;;;4935496;29;20462;-45
2022/06/03 02:35:52;;;;;;;9.07;6.63;;;6.80;99.90;;;;;;4993598;28;20092;-42
2022/06/03 02:38:30;;;;;;;8.90;6.53;;;6.90;99.90;;;;;;4995498;28;20049;-42
2022/06/03 02:41:28;;;;;;;9.85;6.32;;;6.80;99.90;;;;;;4996415;28;20401;-42
2022/06/03 02:44:03;;;;;;;9.15;6.50;;;6.70;99.90;;;;;;4995270;28;20645;-42
2022/06/03 02:46:28;;;;;;;9.70;6.93;;;6.60;99.90;;;;;;4994934;28;20048;-44
2022/06/03 02:49:44;;;;;;;8.88;6.75;;;6.60;99.90;;;;;;4995067;28;20061;-43
2022/06/03 02:52:25;;;;;;;10.85;6.63;;;6.70;99.90;;;;;;4972407;28;20062;-45
2022/06/03 02:55:18;;;;;;;9.90;6.43;;;6.60;99.90;;;;;;4972552;28;20132;-42
2022/06/03 02:58:20;;;;;;;13.15;8.80;;;6.60;99.90;;;;;;4971644;28;20959;-43
2022/06/03 03:01:24;;;;;;;12.95;9.13;;;6.60;99.90;;;;;;4972610;28;20125;-42
2022/06/03 03:04:01;;;;;;;11.23;7.28;;;6.70;99.90;;;;;;4974184;28;20509;-41
2022/06/03 03:07:09;;;;;;;9.60;6.97;;;6.70;99.90;;;;;;4981881;28;20053;-43
2022/06/03 03:10:03;;;;;;;8.93;7.03;;;6.70;99.90;;;;;;4953630;28;20443;-41
2022/06/03 03:12:50;;;;;;;10.40;7.13;;;6.60;99.90;;;;;;4938310;28;20051;-41
2022/06/03 03:15:46;;;;;;;10.40;7.10;;;6.70;99.90;;;;;;4949399;28;20698;-42
2022/06/03 03:18:30;;;;;;;12.02;8.07;;;6.60;99.90;;;;;;4920602;28;20130;-45
2022/06/03 03:21:33;;;;;;;11.95;7.57;;;6.60;99.90;;;;;;4937986;28;20145;-41
2022/06/03 03:24:25;;;;;;;10.82;7.30;;;6.80;99.90;;;;;;4995455;28;20041;-46
2022/06/03 03:27:25;;;;;;;9.93;7.75;;;6.70;99.90;;;;;;5011960;28;20053;-41
2022/06/03 03:30:36;;;;;;;15.30;8.50;;;6.70;99.90;;;;;;4954017;28;20051;-43
2022/06/03 03:33:42;;;;;;;13.70;8.10;;;6.80;99.90;;;;;;4862763;29;20103;-44
2022/06/03 03:36:45;;;;;;;10.10;7.85;;;6.90;99.90;;;;;;4877168;29;20064;-43
2022/06/03 03:39:13;;;;;;;8.80;6.65;;;7.10;99.90;;;;;;4861522;29;20049;-45
2022/06/03 03:42:03;;;;;;;8.50;6.70;;;8.00;99.90;;;;;;4879022;29;20964;-45
2022/06/03 03:44:45;;;;;;;7.18;5.82;;;7.20;99.90;;;;;;4847736;29;20091;-42
2022/06/03 03:47:26;;;;;;;;;;;7.20;99.90;;;;;;4914369;29;20081;-42
2022/06/03 03:50:30;;;;;;;9.27;6.63;;;7.20;99.90;;;;;;4914952;29;19927;-42
2022/06/03 03:53:17;;;;;;;7.90;5.63;;;7.40;99.90;;;;;;4862091;29;20403;-46
2022/06/03 03:55:45;;;;;;;10.95;6.07;;;7.50;99.90;;;;;;4861369;29;20147;-42
2022/06/03 03:58:34;;;;;;;9.02;6.78;;;7.60;99.90;;;;;;4875632;29;20674;-44
2022/06/03 04:00:59;;;;;;;11.85;9.18;;;7.60;99.90;;;;;;4846297;29;20056;-43
2022/06/03 04:03:37;;;;;;;15.70;9.82;;;8.10;99.90;;;;;;4860332;29;20045;-45
2022/06/03 04:06:39;;;;;;;16.17;11.25;;;8.00;99.90;;;;;;4891157;28;20150;-43
2022/06/03 04:09:11;;;;;;;;;;;8.20;99.90;;;;;;4949855;28;20099;-44
2022/06/03 04:11:36;;;;;;;13.68;9.13;;;8.40;99.90;;;;;;4974225;28;19925;-46
2022/06/03 04:14:24;;;;;;;13.70;8.95;;;8.40;99.90;;;;;;4975441;28;20096;-42
2022/06/03 04:17:06;;;;;;;15.57;9.45;;;8.50;99.90;;;;;;4959281;28;20530;-42
2022/06/03 04:20:09;;;;;;;13.55;9.82;;;8.70;99.90;;;;;;4974584;28;20103;-44
2022/06/03 04:22:53;;;;;;;11.95;8.20;;;8.90;99.90;;;;;;4999952;28;20065;-42
2022/06/03 04:25:32;;;;;;;11.65;8.82;;;9.10;99.90;;;;;;4975564;28;20045;-46
2022/06/03 04:28:15;;;;;;;14.60;9.30;;;9.20;99.90;;;;;;4973304;28;20112;-44
2022/06/03 04:31:00;;;;;;;14.02;8.60;;;9.40;99.90;;;;;;5042722;28;20059;-44
2022/06/03 04:34:05;;;;;;;12.57;7.95;;;9.70;99.90;;;;;;5033684;28;20048;-44
2022/06/03 04:36:37;;;;;;;10.93;7.43;;;9.70;99.90;;;;;;5015650;28;20064;-48
2022/06/03 04:39:47;;;;;;;12.20;7.65;;;10.80;99.90;;;;;;5033009;28;20139;-42
2022/06/03 04:42:22;;;;;;;10.07;7.28;;;9.90;99.90;;;;;;4973055;28;20943;-44
2022/06/03 04:45:34;;;;;;;12.13;6.50;;;10.00;99.90;;;;;;4975558;28;20054;-46
2022/06/03 04:48:11;;;;;;;12.27;5.65;;;10.30;99.90;;;;;;4973754;28;20053;-43
2022/06/03 04:51:25;;;;;;;13.00;6.28;;;10.40;99.90;;;;;;4974897;28;20050;-43
2022/06/03 04:54:24;;;;;;;9.77;5.65;;;10.50;99.90;;;;;;4959427;28;20069;-46
2022/06/03 04:57:19;;;;;;;9.05;4.82;;;10.50;99.90;;;;;;4973478;28;20514;-43
2022/06/03 04:59:48;;;;;;;13.55;4.63;;;10.80;99.90;;;;;;5007627;28;20077;-47
2022/06/03 05:02:38;;;;;;;7.95;4.30;;;11.00;99.90;;;;;;4973829;28;20049;-44
2022/06/03 05:05:28;;;;;;;6.78;4.25;;;11.00;99.90;;;;;;4990102;28;20132;-41
2022/06/03 05:08:15;;;;;;;8.40;4.13;;;11.00;99.90;;;;;;5006724;28;20542;-43
2022/06/03 05:11:08;;;;;;;10.95;3.90;;;11.00;99.90;;;;;;4990118;28;20069;-42
2022/06/03 05:13:57;;;;;;;8.40;4.53;;;11.10;99.90;;;;;;5007678;28;20174;-42
2022/06/03 05:17:00;;;;;;;8.50;3.85;;;11.20;99.90;;;;;;4973514;28;20113;-43
2022/06/03 05:19:51;;;;;;;6.30;3.67;;;11.40;99.90;;;;;;5020076;28;20102;-43
2022/06/03 05:22:35;;;;;;;10.07;4.00;;;11.50;99.90;;;;;;5084691;28;20041;-42
2022/06/03 05:25:42;;;;;;;7.78;3.63;;;11.50;99.90;;;;;;5051403;28;20040;-41
2022/06/03 05:28:40;;;;;;;6.97;3.80;;;11.60;99.90;;;;;;5065947;28;20052;-41
2022/06/03 05:31:40;;;;;;;8.73;4.00;;;11.70;99.90;;;;;;5048310;28;20052;-43
2022/06/03 05:34:26;;;;;;;8.77;4.20;;;12.00;99.90;;;;;;5032071;28;20169;-43
2022/06/03 05:36:57;;;;;;;7.32;3.72;;;11.90;99.90;;;;;;5048231;28;20071;-42
2022/06/03 05:40:00;;;;;;;8.05;3.60;;;12.20;99.90;;;;;;5048506;28;20523;-42
2022/06/03 05:42:57;;;;;;;8.52;3.42;;;12.30;99.90;;;;;;5031940;28;20052;-42
2022/06/03 05:45:44;;;;;;;7.13;3.50;;;12.40;99.90;;;;;;5037145;28;20048;-47
2022/06/03 05:48:23;;;;;;;9.93;3.67;;;12.70;99.90;;;;;;5018842;28;20146;-45
2022/06/03 05:50:51;;;;;;;10.55;3.88;;;12.60;99.90;;;;;;5036256;28;20082;-43
2022/06/03 05:53:44;;;;;;;6.78;3.30;;;12.90;99.90;;;;;;5036057;28;20135;-46
2022/06/03 05:56:31;;;;;;;8.68;3.25;;;12.90;99.90;;;;;;4957504;28;20384;-44
2022/06/03 05:59:03;;;;;;;8.93;3.20;;;12.90;99.90;;;;;;4973733;28;20066;-42
2022/06/03 06:01:59;;;;;;;5.70;2.78;;;13.00;99.90;;;;;;4974148;28;20482;-43
2022/06/03 06:04:48;;;;;;;5.53;2.55;;;12.90;99.90;;;;;;4975088;28;20058;-48
2022/06/03 06:07:33;;;;;;;6.78;2.63;;;13.20;99.90;;;;;;4959367;28;20109;-46
2022/06/03 06:10:26;;;;;;;5.80;2.75;;;15.00;99.90;;;;;;4959378;28;20047;-42
2022/06/03 06:13:30;;;;;;;5.22;2.75;;;13.30;99.90;;;;;;4958974;28;20561;-47
2022/06/03 06:16:09;;;;;;;4.95;2.20;;;13.90;99.90;;;;;;4938958;28;20055;-42
2022/06/03 06:18:56;;;;;;;5.65;2.30;;;15.10;99.90;;;;;;4939283;28;20042;-48
2022/06/03 06:21:49;;;;;;;5.93;1.90;;;15.60;99.90;;;;;;4938487;28;20431;-46
2022/06/03 06:24:43;;;;;;;6.15;1.90;;;15.70;99.90;;;;;;4937295;28;20554;-46
2022/06/03 06:27:29;;;;;;;2.78;1.58;;;15.50;99.90;;;;;;4937970;28;20058;-42
2022/06/03 06:30:05;;;;;;;4.40;2.00;;;15.40;99.90;;;;;;4938510;28;20047;-45
2022/06/03 06:32:35;;;;;;;3.97;1.50;;;16.50;99.90;;;;;;4947280;28;20576;-48
2022/06/03 06:35:28;;;;;;;5.07;1.80;;;15.80;99.90;;;;;;4993995;28;20705;-45
2022/06/03 06:38:20;;;;;;;6.30;2.13;;;15.70;99.90;;;;;;4994186;28;20036;-45
2022/06/03 06:40:54;;;;;;;6.57;1.57;;;15.50;99.90;;;;;;4940216;28;20054;-43
2022/06/03 06:43:39;;;;;;;5.50;1.50;;;15.80;99.90;;;;;;4972962;28;21664;-42
2022/06/03 06:46:33;;;;;;;3.17;1.42;;;14.20;99.90;;;;;;4957598;28;20113;-44
2022/06/03 06:49:24;;;;;;;5.13;1.70;;;15.90;99.90;;;;;;4956208;28;20065;-43
2022/06/03 06:52:03;;;;;;;4.18;1.30;;;16.30;99.90;;;;;;4961170;28;20578;-44
2022/06/03 06:54:57;;;;;;;5.38;1.27;;;16.40;99.90;;;;;;4980662;28;20034;-47
2022/06/03 06:57:27;;;;;;;3.22;1.00;;;17.10;99.90;;;;;;4994372;28;20128;-43
2022/06/03 07:00:04;;;;;;;4.30;1.20;;;17.60;99.90;;;;;;4978951;28;20181;-46
2022/06/03 07:02:44;;;;;;;3.85;1.55;;;18.00;99.90;;;;;;4978520;28;20052;-46
2022/06/03 07:05:46;;;;;;;1.83;0.65;;;18.40;99.90;;;;;;4977701;28;20057;-44
2022/06/03 07:08:30;;;;;;;4.60;1.23;;;18.60;99.90;;;;;;4994522;28;20076;-45
2022/06/03 07:11:06;;;;;;;5.85;0.90;;;19.10;99.90;;;;;;5010260;28;20057;-44
2022/06/03 07:13:38;;;;;;;3.28;1.05;;;19.20;99.90;;;;;;4994515;28;20117;-47
2022/06/03 07:20:00;;;;;;;4.60;1.02;;;21.40;99.90;;;;;;5054612;28;20398;-47
2022/06/03 07:22:31;;;;;;;2.15;1.00;;;22.40;99.90;;;;;;5036964;28;20760;-47
2022/06/03 07:25:23;;;;;;;3.65;0.80;;;22.50;99.90;;;;;;5053597;28;20037;-44
2022/06/03 07:27:58;;;;;;;4.03;1.00;;;22.70;99.90;;;;;;5035722;28;20040;-45
2022/06/03 07:30:40;;;;;;;17.15;7.30;;;23.60;99.90;;;;;;5069369;28;20369;-48
2022/06/03 07:33:27;;;;;;;876.80;332.77;;;24.00;99.80;;;;;;5054755;28;20047;-45
2022/06/03 07:35:56;;;;;;;1285.10;800.60;;;24.00;97.30;;;;;;5054350;28;20048;-46
2022/06/03 07:38:40;;;;;;;1213.47;915.05;;;24.10;99.10;;;;;;5052672;28;20056;-46
2022/06/03 07:41:29;;;;;;;997.67;808.65;;;24.40;98.50;;;;;;5051969;28;20925;-47
2022/06/03 07:44:12;;;;;;;792.70;715.08;;;24.50;97.60;;;;;;5051978;28;20074;-47
2022/06/03 07:46:53;;;;;;;978.67;783.70;;;24.70;97.10;;;;;;5052587;28;20480;-46
2022/06/03 07:49:22;;;;;;;986.17;775.95;;;24.40;94.40;;;;;;5052077;28;20423;-50
2022/06/03 07:51:53;;;;;;;875.65;781.70;;;25.00;95.80;;;;;;5035406;28;20048;-44
2022/06/03 07:54:26;;;;;;;;;;;25.00;95.30;;;;;;5063827;28;20132;-45
2022/06/03 07:57:01;;;;;;;928.35;720.55;;;24.50;93.10;;;;;;5085934;28;19979;-47
2022/06/03 07:59:31;;;;;;;1580.78;853.10;;;24.60;93.20;;;;;;5053486;28;20581;-46
2022/06/03 08:02:01;;;;;;;852.08;602.50;;;24.60;92.40;;;;;;5052298;28;20405;-45
2022/06/03 08:04:30;;;;;;;1221.47;717.50;;;24.00;92.20;;;;;;5069112;28;20120;-46
2022/06/03 08:12:37;;;;;;;484.67;381.67;;;23.70;93.00;;;;;;5050720;28;20068;-45
2022/06/03 08:15:20;;;;;;;991.33;613.42;;;24.20;93.50;;;;;;5051914;28;20818;-50
2022/06/03 08:17:49;;;;;;;262.73;191.00;;;24.30;91.60;;;;;;5050826;28;20127;-46
2022/06/03 08:20:18;;;;;;;765.35;580.47;;;26.00;94.20;;;;;;5029107;28;20032;-44
2022/06/03 08:22:45;;;;;;;653.78;583.40;;;24.70;91.20;;;;;;5085713;28;20751;-47
2022/06/03 08:25:15;;;;;;;273.25;210.85;;;24.30;91.80;;;;;;5085769;28;20044;-46
2022/06/03 08:27:42;;;;;;;341.17;287.20;;;24.20;92.60;;;;;;5050532;28;20049;-48
2022/06/03 08:30:12;;;;;;;445.08;401.38;;;24.30;92.50;;;;;;5052439;28;20122;-46
2022/06/03 08:32:43;;;;;;;434.73;312.48;;;24.40;92.00;;;;;;5051838;28;20126;-46
2022/06/03 08:35:14;;;;;;;12.68;7.68;;;24.60;92.10;;;;;;5051550;28;20158;-47
2022/06/03 08:37:48;;;;;;;416.65;376.08;;;24.50;92.70;;;;;;5035491;28;20071;-46
2022/06/03 08:40:23;;;;;;;631.63;573.95;;;24.10;91.10;;;;;;5050185;28;20120;-46
2022/06/03 08:43:13;;;;;;;440.35;400.20;;;24.20;90.70;;;;;;5085679;28;20055;-44
2022/06/03 08:46:10;;;;;;;2.85;0.80;;;24.20;91.30;;;;;;5046103;28;20179;-48
2022/06/03 08:48:41;;;;;;;7.78;4.70;;;23.90;91.80;;;;;;5006470;28;20041;-50
2022/06/03 08:51:26;;;;;;;168.73;146.77;;;23.50;92.10;;;;;;5007433;28;20049;-48
2022/06/03 08:54:19;;;;;;;3.88;2.50;;;23.40;91.50;;;;;;5023089;28;20092;-46
2022/06/03 08:56:48;;;;;;;2.20;0.90;;;23.40;92.20;;;;;;4990961;28;20064;-45
2022/06/03 08:59:23;;;;;;;3.20;1.05;;;23.20;92.50;;;;;;4972652;28;20545;-46
2022/06/03 09:02:00;;;;;;;3.75;1.00;;;23.20;93.70;;;;;;4960088;28;20125;-46
2022/06/03 09:04:34;;;;;;;2.70;1.00;;;22.90;92.30;;;;;;4972949;28;20056;-46
2022/06/03 09:07:14;;;;;;;4.00;1.13;;;23.00;94.00;;;;;;4972519;28;21089;-46
2022/06/03 09:10:15;;;;;;;5.53;1.50;;;22.80;92.90;;;;;;4988316;28;20053;-49
2022/06/03 09:13:04;;;;;;;4.13;1.25;;;22.70;93.60;;;;;;4957323;28;20041;-46
2022/06/03 09:15:38;;;;;;;3.50;1.15;;;22.30;94.30;;;;;;4988622;28;20065;-47
2022/06/03 09:18:14;;;;;;;3.40;1.10;;;21.80;95.20;;;;;;4956940;28;20851;-46
2022/06/03 09:20:52;;;;;;;4.32;1.20;;;21.80;96.10;;;;;;4971360;28;20057;-48
2022/06/03 09:23:20;;;;;;;3.83;1.10;;;21.20;96.30;;;;;;4988590;28;20072;-48
2022/06/03 09:25:53;;;;;;;6.05;1.30;;;21.30;97.10;;;;;;4988947;28;20771;-49
2022/06/03 09:28:25;;;;;;;3.38;1.20;;;21.20;96.60;;;;;;5012677;28;20514;-45
2022/06/03 09:30:53;;;;;;;4.00;1.27;;;21.40;97.80;;;;;;5012614;28;20497;-46
2022/06/03 09:33:21;;;;;;;4.30;1.52;;;22.70;97.90;;;;;;5002379;28;20127;-45
2022/06/03 09:35:51;;;;;;;4.40;1.13;;;20.90;97.60;;;;;;5051564;28;20527;-44
2022/06/03 09:38:21;;;;;;;4.82;1.30;;;20.70;97.00;;;;;;5050977;28;20281;-43
2022/06/03 09:40:48;;;;;;;5.55;1.38;;;20.80;98.00;;;;;;5033002;28;20048;-48
2022/06/03 09:43:35;;;;;;;3.72;1.13;;;20.90;97.80;;;;;;5032988;28;20585;-50
2022/06/03 09:46:02;;;;;;;4.57;1.40;;;21.20;97.10;;;;;;5068683;28;20501;-48
2022/06/03 09:48:36;;;;;;;3.95;1.20;;;20.80;98.20;;;;;;5032968;28;20084;-45
2022/06/03 09:51:16;;;;;;;4.75;1.38;;;20.80;98.70;;;;;;5066787;28;20051;-48
2022/06/03 09:53:43;;;;;;;4.32;1.63;;;21.00;98.20;;;;;;5067076;28;20094;-46
2022/06/03 09:56:29;;;;;;;5.95;1.45;;;20.80;98.10;;;;;;5050495;28;20055;-48
2022/06/03 09:59:00;;;;;;;3.97;1.60;;;21.50;98.80;;;;;;5084372;28;20032;-47
2022/06/03 10:01:27;;;;;;;3.75;1.30;;;21.00;99.70;;;;;;5051509;28;20588;-47
2022/06/03 10:03:56;;;;;;;3.03;1.67;;;21.10;98.50;;;;;;5049671;28;20056;-45
2022/06/03 10:14:35;;;;;;;24.17;18.63;;;21.10;98.00;;;;;;5082253;28;20070;-48
2022/06/03 10:17:04;;;;;;;131.52;77.10;;;21.30;98.80;;;;;;5034092;28;20032;-49
2022/06/03 10:19:30;;;;;;;284.70;180.27;;;21.50;97.90;;;;;;5066624;28;20048;-46
2022/06/03 10:21:56;;;;;;;221.90;193.63;;;21.20;98.10;;;;;;5034137;28;20095;-49
2022/06/03 10:24:29;;;;;;;1171.65;753.53;;;21.30;99.30;;;;;;5049179;28;20041;-50
2022/06/03 10:27:00;;;;;;;833.90;743.80;;;21.40;99.00;;;;;;5063640;28;20106;-54
2022/06/03 10:29:29;;;;;;;476.02;427.00;;;21.50;98.60;;;;;;5061457;28;20109;-49
2022/06/03 10:32:00;;;;;;;724.95;648.58;;;21.60;99.90;;;;;;5053172;28;20070;-50
2022/06/03 10:34:32;;;;;;;1129.75;876.03;;;23.10;98.80;;;;;;5035711;28;20056;-47
2022/06/03 10:36:58;;;;;;;729.80;662.25;;;21.40;98.30;;;;;;5055198;28;20055;-47
2022/06/03 10:39:30;;;;;;;856.55;743.13;;;21.30;98.00;;;;;;5053463;28;20036;-46
2022/06/03 10:41:58;;;;;;;948.88;833.38;;;21.10;98.70;;;;;;5087529;28;20047;-45
2022/06/03 10:44:36;;;;;;;973.65;809.40;;;22.00;99.90;;;;;;5035911;28;20055;-48
2022/06/03 10:47:04;;;;;;;662.42;606.53;;;21.30;98.20;;;;;;5054655;28;20421;-44
2022/06/03 10:49:48;;;;;;;724.38;654.53;;;21.00;98.60;;;;;;5053535;28;20291;-48
2022/06/03 11:01:24;;;;;;;1294.32;881.60;;;21.60;99.90;;;;;;5055590;28;20455;-45
2022/06/03 11:03:51;;;;;;;1875.40;971.08;;;21.60;99.20;;;;;;5070309;28;20787;-48
2022/06/03 11:06:23;;;;;;;903.53;817.35;;;21.60;98.20;;;;;;5036380;28;20278;-44
2022/06/03 11:09:00;;;;;;;1194.53;931.58;;;22.80;98.10;;;;;;5066664;28;20547;-49
2022/06/03 11:11:44;;;;;;;843.67;765.92;;;21.30;97.60;;;;;;5051746;28;20136;-49
2022/06/03 11:14:40;;;;;;;963.55;868.78;;;21.40;98.30;;;;;;5085993;28;20533;-46
2022/06/03 11:17:18;;;;;;;949.72;852.72;;;21.30;99.20;;;;;;5051764;28;20896;-47
2022/06/03 11:19:56;;;;;;;734.72;671.17;;;21.70;98.10;;;;;;5050710;28;20134;-48
2022/06/03 11:22:31;;;;;;;1026.50;900.67;;;21.80;99.30;;;;;;5084917;28;20062;-48
2022/06/03 11:25:03;;;;;;;1383.63;904.00;;;21.70;98.10;;;;;;5085584;28;20528;-45
2022/06/03 11:28:05;;;;;;;1558.72;950.40;;;22.30;98.20;;;;;;5068782;28;20520;-48
2022/06/03 11:30:51;;;;;;;1325.82;935.92;;;21.90;96.30;;;;;;5013211;28;20091;-45
2022/06/03 11:33:37;;;;;;;1361.93;910.60;;;22.10;96.20;;;;;;5014376;28;20490;-50
2022/06/03 11:36:20;;;;;;;1861.28;985.47;;;21.90;96.60;;;;;;5028766;28;20053;-49
2022/06/03 11:39:23;;;;;;;943.28;849.08;;;21.40;96.70;;;;;;5013061;28;20476;-49
2022/06/03 11:42:15;;;;;;;1969.32;999.90;;;20.80;97.80;;;;;;5006375;28;20092;-46
2022/06/03 11:44:43;;;;;;;;;;;21.10;98.60;;;;;;4974200;28;20435;-49
2022/06/03 11:47:32;;;;;;;909.42;820.33;;;21.20;96.90;;;;;;5007713;28;19925;-46
2022/06/03 11:49:58;;;;;;;907.83;817.88;;;21.40;97.80;;;;;;4970499;28;20137;-50
2022/06/03 11:52:24;;;;;;;963.47;855.38;;;21.40;97.30;;;;;;4955647;28;20058;-49
2022/06/03 11:54:54;;;;;;;937.10;814.08;;;21.50;98.30;;;;;;4955129;28;20061;-46
2022/06/03 11:57:20;;;;;;;848.38;765.72;;;21.40;96.90;;;;;;4955406;28;20163;-48
2022/06/03 11:59:52;;;;;;;1210.07;901.85;;;21.60;98.00;;;;;;4972636;28;20061;-49
2022/06/03 12:02:24;;;;;;;988.08;853.05;;;21.80;97.40;;;;;;4972579;28;20168;-45
2022/06/03 12:04:52;;;;;;;1744.40;999.38;;;21.70;97.40;;;;;;4971244;28;20523;-46
2022/06/03 12:07:42;;;;;;;1102.47;868.05;;;21.80;97.80;;;;;;4946535;28;20635;-47
2022/06/03 12:10:44;;;;;;;828.45;750.85;;;21.80;97.30;;;;;;4953274;28;20046;-45
2022/06/03 12:13:17;;;;;;;1775.50;976.53;;;21.50;97.60;;;;;;4951458;28;20051;-45
2022/06/03 12:16:13;;;;;;;977.80;873.03;;;21.40;98.50;;;;;;4952503;28;20046;-44
2022/06/03 12:18:55;;;;;;;1416.22;944.55;;;21.30;98.20;;;;;;4954809;28;20528;-47
2022/06/03 12:21:52;;;;;;;1172.97;910.53;;;21.70;97.60;;;;;;4974968;28;20065;-44
2022/06/03 12:24:29;;;;;;;1129.32;904.08;;;22.00;98.90;;;;;;4936713;28;20054;-47
2022/06/03 12:26:56;;;;;;;1999.90;999.90;;;21.80;97.10;;;;;;4952652;28;20397;-48
2022/06/03 12:29:32;;;;;;;1083.40;859.67;;;21.90;97.10;;;;;;4967483;28;20811;-44
2022/06/03 12:32:15;;;;;;;932.53;838.33;;;21.80;97.80;;;;;;4967906;28;20057;-46
2022/06/03 12:34:41;;;;;;;1087.85;912.88;;;21.80;97.90;;;;;;4935696;28;20463;-48
2022/06/03 12:37:29;;;;;;;1087.30;898.10;;;21.80;97.80;;;;;;4966861;28;20050;-47
2022/06/03 12:40:01;;;;;;;1197.30;843.55;;;23.90;98.70;;;;;;4966980;28;20042;-45
2022/06/03 12:42:26;;;;;;;1135.70;838.67;;;21.20;98.00;;;;;;4949721;28;20051;-44
2022/06/03 12:45:26;;;;;;;1354.75;917.13;;;21.10;98.60;;;;;;4951665;28;20081;-49
2022/06/03 12:47:55;;;;;;;1432.90;901.28;;;20.60;98.20;;;;;;4937135;28;20043;-45
2022/06/03 12:50:32;;;;;;;1560.38;890.53;;;21.30;98.50;;;;;;4951742;28;20070;-46
2022/06/03 12:53:25;;;;;;;1319.32;972.58;;;20.40;98.90;;;;;;4937883;28;20073;-46
2022/06/03 12:55:59;;;;;;;617.58;472.95;;;20.70;99.10;;;;;;4976839;28;20053;-47
2022/06/03 12:58:37;;;;;;;1177.20;765.65;;;20.80;99.90;;;;;;4973065;28;20514;-44
2022/06/03 13:01:05;;;;;;;205.45;124.15;;;21.20;99.80;;;;;;4993227;28;20049;-45
2022/06/03 13:03:34;;;;;;;47.42;43.10;;;21.10;99.90;;;;;;4992156;28;20110;-44
2022/06/03 13:06:08;;;;;;;15.27;13.80;;;21.30;99.90;;;;;;5009063;28;20056;-44
2022/06/03 13:08:34;;;;;;;29.27;15.50;;;21.20;99.90;;;;;;4995390;28;20592;-45
2022/06/03 13:11:31;;;;;;;489.55;197.57;;;20.90;99.90;;;;;;5016862;28;21007;-44
2022/06/03 13:13:56;;;;;;;72.75;33.67;;;21.10;99.90;;;;;;5002551;28;20041;-45
2022/06/03 13:16:37;;;;;;;215.23;44.72;;;21.10;99.90;;;;;;5000683;28;20115;-43
2022/06/03 13:19:17;;;;;;;24.42;15.75;;;21.00;99.90;;;;;;5001871;28;20049;-44
2022/06/03 13:22:07;;;;;;;11.65;6.85;;;20.90;99.90;;;;;;5006308;28;20045;-47
2022/06/03 13:24:39;;;;;;;79.35;38.33;;;22.90;99.90;;;;;;5032012;28;20197;-46
2022/06/03 13:27:06;;;;;;;70.55;15.40;;;22.10;99.90;;;;;;5068401;28;20044;-44
2022/06/03 13:29:51;;;;;;;17.00;7.13;;;21.00;99.90;;;;;;5034261;28;20044;-45
2022/06/03 13:32:21;;;;;;;5.95;1.73;;;20.70;99.90;;;;;;5033187;28;20098;-44
2022/06/03 13:34:47;;;;;;;6.60;1.30;;;21.90;99.90;;;;;;5048559;28;20111;-45
2022/06/03 13:37:21;;;;;;;12.65;2.47;;;20.70;99.90;;;;;;5043371;28;20048;-46
2022/06/03 13:39:49;;;;;;;46.55;15.25;;;20.60;99.90;;;;;;5066393;28;20053;-44
2022/06/03 13:45:03;;;;;;;267.83;69.15;;;20.50;99.90;;;;;;5050177;28;20132;-45
2022/06/03 13:47:39;;;;;;;141.95;35.92;;;18.90;99.90;;;;;;5049685;28;20337;-44
2022/06/03 13:50:28;;;;;;;239.45;59.20;;;20.50;99.90;;;;;;5049400;28;20058;-45
2022/06/03 13:53:06;;;;;;;7.65;1.30;;;18.60;99.90;;;;;;5008991;28;20115;-45
2022/06/03 13:55:53;;;;;;;4.75;1.85;;;20.30;99.90;;;;;;5026012;28;20529;-45
2022/06/03 13:58:27;;;;;;;290.75;91.93;;;21.40;99.90;;;;;;5009309;28;20513;-44
2022/06/03 14:00:59;;;;;;;9.52;1.90;;;20.20;99.90;;;;;;5011668;28;20040;-46
2022/06/03 14:03:25;;;;;;;;;;;20.30;99.90;;;;;;5045582;28;20075;-45
2022/06/03 14:05:50;;;;;;;175.50;41.80;;;20.10;99.90;;;;;;5045309;28;19924;-45
2022/06/03 14:08:26;;;;;;;77.05;21.88;;;21.70;99.90;;;;;;5015008;28;20123;-45
2022/06/03 14:11:04;;;;;;;236.48;84.18;;;20.20;99.90;;;;;;5015253;28;20096;-45
2022/06/03 14:14:02;;;;;;;20.20;2.45;;;20.10;99.90;;;;;;5016225;28;20106;-45
2022/06/03 14:17:02;;;;;;;18.73;7.38;;;20.20;99.90;;;;;;5049037;28;20056;-49
2022/06/03 14:19:50;;;;;;;146.45;27.02;;;20.10;99.90;;;;;;5031576;28;20047;-48
2022/06/03 14:22:37;;;;;;;5.18;1.25;;;19.90;99.90;;;;;;5032301;28;20054;-44